Terminal Aerodrome Forecast
Issued by NWS Blacksburg, VA

Current Version | Previous Version | Graphics & Text | Print | Product List | Glossary On
Versions: 1 2 3 4 5 6 7 8 9 10 11 12 13 14 15 16 17 18 19 20 21 22 23 24 25 26 27 28 29 30 31 32
000
FTUS41 KRNK 011738
TAFBLF
TAF
KBLF 011738Z 0118/0218 30008KT P6SM OVC006
     FM012000 30008KT P6SM VCSH BKN012
     FM020000 29005KT P6SM FEW015 BKN040
     FM020600 26004KT P6SM BKN010
     FM021400 32008KT P6SM FEW010 SCT040
      AMD NOT SKED=

USA.gov is the U.S. government's official web portal to all federal, state and local government web resources and services.